Terminal Aerodrome Forecast
Issued by NWS

Home | Current Version | Previous Version | Text Only | Print | Product List | Glossary Off
Versions: 1 2 3 4 5 6 7 8 9 10 11 12 13 14

023
FTUS43 KMPX 281138
TAFAXN
TAF
KAXN 281138Z 2812/2912 08003KT P6SM FEW250
      TEMPO 2812/2814 4SM BR
     FM281800 10007KT P6SM SCT250
     FM290200 11008KT P6SM BKN200=

USA.gov is the U.S. government's official web portal to all federal, state and local government web resources and services.